createdAt,value
2023-03-05T00:01:44.040Z,4.40
2023-03-05T00:04:15.786Z,4.40
2023-03-05T00:06:45.113Z,4.40
2023-03-05T00:09:13.344Z,4.40
2023-03-05T00:11:42.220Z,4.50
2023-03-05T00:14:12.279Z,4.30
2023-03-05T00:16:41.462Z,4.40
2023-03-05T00:19:12.509Z,4.30
2023-03-05T00:21:42.740Z,4.30
2023-03-05T00:24:16.803Z,4.40
2023-03-05T00:26:46.791Z,4.20
2023-03-05T00:29:19.508Z,4.20
2023-03-05T00:31:48.212Z,4.20
2023-03-05T00:34:20.861Z,4.20
2023-03-05T00:36:52.287Z,4.20
2023-03-05T00:39:22.755Z,4.30
2023-03-05T00:41:51.543Z,4.30
2023-03-05T00:44:21.230Z,4.30
2023-03-05T00:46:49.792Z,4.30
2023-03-05T00:49:20.101Z,4.40
2023-03-05T00:51:48.433Z,4.40
2023-03-05T00:54:17.174Z,4.30
2023-03-05T00:56:46.521Z,4.30
2023-03-05T00:59:14.714Z,4.20
2023-03-05T01:01:43.458Z,4.30
2023-03-05T01:04:12.146Z,4.40
2023-03-05T01:06:44.978Z,4.40
2023-03-05T01:09:15.279Z,4.50
2023-03-05T01:11:43.709Z,4.30
2023-03-05T01:14:12.632Z,4.30
2023-03-05T01:16:41.065Z,4.30
2023-03-05T01:19:10.144Z,4.30
2023-03-05T01:26:52.328Z,4.20
2023-03-05T01:29:20.818Z,4.30
2023-03-05T01:31:49.720Z,4.30
2023-03-05T01:34:18.126Z,4.30
2023-03-05T01:36:46.516Z,4.20
2023-03-05T01:39:14.992Z,4.30
2023-03-05T01:41:43.358Z,4.30
2023-03-05T01:44:24.697Z,4.30
2023-03-05T01:46:53.633Z,4.30
2023-03-05T01:49:27.909Z,4.30
2023-03-05T01:52:06.473Z,4.30
2023-03-05T01:54:40.222Z,4.40
2023-03-05T01:57:14.211Z,4.40
2023-03-05T01:59:49.705Z,4.40
2023-03-05T02:02:19.797Z,4.50
2023-03-05T02:04:55.976Z,4.50
2023-03-05T02:07:26.175Z,4.60
2023-03-05T02:09:56.813Z,4.50
2023-03-05T02:12:25.694Z,4.50
2023-03-05T02:14:59.661Z,4.50
2023-03-05T02:17:29.520Z,4.40
2023-03-05T02:20:07.416Z,4.40
2023-03-05T02:22:37.142Z,4.50
2023-03-05T02:25:19.545Z,4.50
2023-03-05T02:27:57.675Z,4.50
2023-03-05T02:30:26.991Z,4.50
2023-03-05T02:32:55.364Z,4.50
2023-03-05T02:35:24.821Z,4.50
2023-03-05T02:37:55.014Z,4.60
2023-03-05T02:40:24.219Z,4.50
2023-03-05T02:42:55.471Z,4.50
2023-03-05T02:45:24.573Z,4.50
2023-03-05T02:47:52.822Z,4.50
2023-03-05T02:50:22.400Z,4.50
2023-03-05T02:52:51.039Z,4.70
2023-03-05T02:55:22.389Z,4.40
2023-03-05T02:57:50.612Z,4.40
2023-03-05T03:00:20.116Z,4.40
2023-03-05T03:02:48.529Z,4.50
2023-03-05T03:05:17.511Z,4.50
2023-03-05T03:07:46.173Z,4.50
2023-03-05T03:10:15.047Z,4.50
2023-03-05T03:12:46.356Z,4.50
2023-03-05T03:15:18.886Z,4.60
2023-03-05T03:17:47.477Z,4.60
2023-03-05T03:20:19.359Z,4.50
2023-03-05T03:22:48.125Z,4.60
2023-03-05T03:25:20.790Z,4.60
2023-03-05T03:27:52.835Z,4.60
2023-03-05T03:30:21.753Z,4.60
2023-03-05T03:32:51.595Z,4.50
2023-03-05T03:35:20.516Z,4.60
2023-03-05T03:37:49.516Z,4.60
2023-03-05T03:40:18.670Z,4.50
2023-03-05T03:42:47.258Z,4.50
2023-03-05T03:45:17.500Z,4.60
2023-03-05T03:47:45.745Z,4.50
2023-03-05T03:50:14.375Z,4.70
2023-03-05T03:52:42.681Z,4.60
2023-03-05T03:55:12.598Z,4.50
2023-03-05T03:57:40.770Z,4.50
2023-03-05T04:00:11.595Z,4.50
2023-03-05T04:02:45.281Z,4.40
2023-03-05T04:05:13.538Z,4.40
2023-03-05T04:07:45.766Z,4.30
2023-03-05T04:10:13.903Z,4.30
2023-03-05T04:12:46.167Z,4.30
2023-03-05T04:15:14.359Z,4.30
2023-03-05T04:17:44.011Z,4.30
2023-03-05T04:20:13.825Z,4.40
2023-03-05T04:22:43.795Z,4.40
2023-03-05T04:25:12.670Z,4.40
2023-03-05T04:27:41.500Z,4.40
2023-03-05T04:30:14.704Z,4.40
2023-03-05T04:32:44.843Z,4.40
2023-03-05T04:35:13.478Z,4.30
2023-03-05T04:37:42.571Z,4.30
2023-03-05T04:40:13.070Z,4.30
2023-03-05T04:42:41.756Z,4.30
2023-03-05T04:45:11.751Z,4.30
2023-03-05T04:47:40.282Z,4.20
2023-03-05T04:50:12.891Z,4.20
2023-03-05T04:52:42.724Z,4.20
2023-03-05T04:55:13.779Z,4.30
2023-03-05T04:57:42.606Z,4.30
2023-03-05T05:00:15.049Z,4.30
2023-03-05T05:02:45.832Z,4.30
2023-03-05T05:05:20.128Z,4.40
2023-03-05T05:07:48.368Z,4.40
2023-03-05T05:10:18.440Z,4.30
2023-03-05T05:12:46.666Z,4.30
2023-03-05T05:15:15.990Z,4.30
2023-03-05T05:17:44.558Z,4.30
2023-03-05T05:20:18.204Z,4.30
2023-03-05T05:22:46.415Z,4.20
2023-03-05T05:25:15.386Z,4.20
2023-03-05T05:27:43.781Z,4.30
2023-03-05T05:30:14.249Z,4.30
2023-03-05T05:32:42.460Z,4.30
2023-03-05T05:35:12.258Z,4.30
2023-03-05T05:37:42.077Z,4.30
2023-03-05T05:40:11.558Z,4.20
2023-03-05T05:42:39.910Z,4.30
2023-03-05T05:45:11.043Z,4.30
2023-03-05T05:47:39.287Z,4.30
2023-03-05T05:50:09.635Z,4.30
2023-03-05T05:52:37.889Z,4.20
2023-03-05T05:55:09.582Z,4.20
2023-03-05T05:57:37.873Z,4.10
2023-03-05T06:00:11.074Z,4.10
2023-03-05T06:02:45.023Z,4.10
2023-03-05T06:05:16.773Z,4.20
2023-03-05T06:07:45.086Z,4.20
2023-03-05T06:10:17.008Z,4.20
2023-03-05T06:12:45.210Z,4.10
2023-03-05T06:15:15.621Z,4.10
2023-03-05T06:17:44.403Z,4.10
2023-03-05T06:20:14.702Z,4.20
2023-03-05T06:22:43.291Z,4.20
2023-03-05T06:25:12.541Z,4.10
2023-03-05T06:27:42.745Z,4.10
2023-03-05T06:30:13.776Z,4.10
2023-03-05T06:32:42.447Z,4.10
2023-03-05T06:35:10.917Z,4.10
2023-03-05T06:37:40.423Z,4.10
2023-03-05T06:40:11.210Z,4.10
2023-03-05T06:42:41.690Z,4.10
2023-03-05T06:45:12.044Z,4.10
2023-03-05T06:47:40.783Z,4.10
2023-03-05T06:50:10.959Z,4.10
2023-03-05T06:52:40.955Z,4.10
2023-03-05T06:55:11.248Z,4.10
2023-03-05T06:57:41.430Z,4.20
2023-03-05T07:00:12.829Z,4.20
2023-03-05T07:02:41.793Z,4.30
2023-03-05T07:05:12.747Z,4.30
2023-03-05T07:07:41.078Z,4.40
2023-03-05T07:10:12.263Z,4.40
2023-03-05T07:12:43.554Z,4.40
2023-03-05T07:15:13.093Z,4.60
2023-03-05T07:17:42.662Z,4.50
2023-03-05T07:20:13.448Z,4.60
2023-03-05T07:22:41.781Z,4.60
2023-03-05T07:25:10.839Z,4.60
2023-03-05T07:27:42.131Z,4.70
2023-03-05T07:30:12.619Z,4.70
2023-03-05T07:32:41.129Z,4.80
2023-03-05T07:35:10.708Z,4.80
2023-03-05T07:37:39.438Z,4.90
2023-03-05T07:40:10.364Z,4.90
2023-03-05T07:42:38.961Z,5.00
2023-03-05T07:45:18.257Z,5.00
2023-03-05T07:47:46.616Z,5.20
2023-03-05T07:50:14.639Z,5.10
2023-03-05T07:52:45.548Z,5.20
2023-03-05T07:55:14.548Z,5.20
2023-03-05T07:57:43.026Z,5.30
2023-03-05T08:00:13.898Z,5.40
2023-03-05T08:02:43.787Z,5.40
2023-03-05T08:05:12.093Z,5.40
2023-03-05T08:07:40.596Z,5.50
2023-03-05T08:10:11.841Z,5.50
2023-03-05T08:12:40.036Z,5.60
2023-03-05T08:15:10.492Z,5.60
2023-03-05T08:17:40.233Z,5.60
2023-03-05T08:20:12.202Z,5.70
2023-03-05T08:22:41.638Z,5.70
2023-03-05T08:25:10.381Z,5.60
2023-03-05T08:27:41.874Z,5.70
2023-03-05T08:30:14.138Z,5.80
2023-03-05T08:32:44.077Z,5.90
2023-03-05T08:35:14.379Z,5.90
2023-03-05T08:37:42.815Z,5.90
2023-03-05T08:40:13.708Z,5.80
2023-03-05T08:42:41.908Z,5.80
2023-03-05T08:45:12.146Z,5.90
2023-03-05T08:47:40.701Z,5.90
2023-03-05T08:50:11.100Z,5.90
2023-03-05T08:52:40.925Z,5.90
2023-03-05T08:55:10.600Z,6.20
2023-03-05T08:57:38.860Z,6.10
2023-03-05T09:00:10.723Z,6.20
2023-03-05T09:02:39.296Z,6.30
2023-03-05T09:05:09.155Z,6.30
2023-03-05T09:07:38.404Z,6.30
2023-03-05T09:10:11.933Z,6.30
2023-03-05T09:12:40.532Z,6.30
2023-03-05T09:15:11.465Z,6.50
2023-03-05T09:17:42.338Z,6.40
2023-03-05T09:20:15.407Z,6.50
2023-03-05T09:22:43.777Z,6.40
2023-03-05T09:25:14.327Z,6.40
2023-03-05T09:27:43.816Z,6.50
2023-03-05T09:30:15.256Z,6.40
2023-03-05T09:32:43.607Z,6.40
2023-03-05T09:35:13.004Z,6.50
2023-03-05T09:37:41.673Z,6.40
2023-03-05T09:40:19.855Z,6.60
2023-03-05T09:43:04.745Z,6.70
2023-03-05T09:45:40.464Z,6.80
2023-03-05T09:48:20.771Z,6.70
2023-03-05T09:50:55.271Z,6.80
2023-03-05T09:53:36.290Z,6.90
2023-03-05T09:56:16.840Z,6.80
2023-03-05T09:58:50.588Z,6.80
2023-03-05T10:01:22.949Z,6.80
2023-03-05T10:03:58.677Z,6.70
2023-03-05T10:06:31.246Z,6.50
2023-03-05T10:09:08.107Z,6.40
2023-03-05T10:11:56.261Z,6.20
2023-03-05T10:14:31.565Z,6.00
2023-03-05T10:17:40.680Z,6.00
2023-03-05T10:20:46.390Z,5.90
2023-03-05T10:23:30.026Z,5.80
2023-03-05T10:26:12.763Z,5.80
2023-03-05T10:28:55.765Z,5.80
2023-03-05T10:31:45.392Z,5.90
2023-03-05T10:34:40.626Z,6.00
2023-03-05T10:37:51.275Z,6.10
2023-03-05T10:40:33.013Z,6.30
2023-03-05T10:43:22.145Z,6.40
2023-03-05T10:45:55.150Z,6.40
2023-03-05T10:48:36.422Z,6.50
2023-03-05T10:51:14.720Z,6.50
2023-03-05T10:53:57.318Z,6.50
2023-03-05T10:56:29.450Z,6.60
2023-03-05T10:58:58.597Z,6.70
2023-03-05T11:01:30.473Z,6.80
2023-03-05T11:04:02.874Z,6.80
2023-03-05T11:06:38.404Z,6.90
2023-03-05T11:09:20.273Z,7.00
2023-03-05T11:12:11.912Z,7.00
2023-03-05T11:14:45.675Z,7.00
2023-03-05T11:17:36.520Z,7.10
2023-03-05T11:20:35.050Z,7.10
2023-03-05T11:23:15.928Z,7.10
2023-03-05T11:25:59.180Z,7.20
2023-03-05T11:28:33.926Z,7.10
2023-03-05T11:31:09.917Z,7.10
2023-03-05T11:33:39.568Z,7.00
2023-03-05T11:36:26.704Z,6.80
2023-03-05T11:39:00.132Z,6.80
2023-03-05T11:41:37.027Z,6.80
2023-03-05T11:44:13.831Z,6.80
2023-03-05T11:46:47.659Z,6.60
2023-03-05T11:49:25.206Z,6.50
2023-03-05T11:52:06.872Z,6.50
2023-03-05T11:54:49.067Z,6.70
2023-03-05T11:57:20.946Z,6.70
2023-03-05T11:59:51.713Z,6.80
2023-03-05T12:02:27.020Z,6.70
2023-03-05T12:04:59.709Z,6.90
2023-03-05T12:07:36.612Z,6.80
2023-03-05T12:10:06.900Z,6.80
2023-03-05T12:12:45.952Z,6.90
2023-03-05T12:15:51.100Z,7.00
2023-03-05T12:18:39.891Z,7.10
2023-03-05T12:21:23.596Z,7.20
2023-03-05T12:23:54.635Z,7.20
2023-03-05T12:26:59.097Z,7.30
2023-03-05T12:29:40.656Z,7.20
2023-03-05T12:33:03.087Z,7.20
2023-03-05T12:35:54.355Z,7.30
2023-03-05T12:38:34.503Z,7.30
2023-03-05T12:41:43.184Z,7.10
2023-03-05T12:44:23.822Z,7.00
2023-03-05T12:47:23.688Z,7.00
2023-03-05T12:49:52.264Z,6.50
2023-03-05T12:52:31.990Z,6.40
2023-03-05T12:55:20.310Z,6.30
2023-03-05T12:57:54.169Z,6.30
2023-03-05T13:00:33.626Z,6.20
2023-03-05T13:03:09.749Z,6.20
2023-03-05T13:05:40.538Z,6.20
2023-03-05T13:08:16.236Z,6.20
2023-03-05T13:10:54.190Z,6.20
2023-03-05T13:13:23.625Z,6.10
2023-03-05T13:15:53.774Z,6.20
2023-03-05T13:18:28.529Z,6.30
2023-03-05T13:21:06.194Z,6.30
2023-03-05T13:23:37.094Z,6.40
2023-03-05T13:26:15.396Z,6.50
2023-03-05T13:28:45.375Z,6.40
2023-03-05T13:31:18.457Z,6.40
2023-03-05T13:33:56.849Z,6.40
2023-03-05T13:36:28.802Z,6.50
2023-03-05T13:38:57.342Z,6.50
2023-03-05T13:41:29.337Z,6.30
2023-03-05T13:44:02.002Z,6.20
2023-03-05T13:52:49.948Z,6.10
2023-03-05T13:55:19.726Z,6.00
2023-03-05T13:57:53.114Z,5.90
2023-03-05T14:00:37.600Z,5.90
2023-03-05T14:03:12.841Z,5.90
2023-03-05T14:05:45.662Z,5.80
2023-03-05T14:08:22.479Z,5.80
2023-03-05T14:10:52.641Z,5.90
2023-03-05T14:13:27.710Z,5.90
2023-03-05T14:16:07.438Z,5.90
2023-03-05T14:18:37.311Z,6.10
2023-03-05T14:21:09.073Z,5.90
2023-03-05T14:23:43.016Z,5.80
2023-03-05T14:26:36.867Z,5.70
2023-03-05T14:29:17.871Z,5.70
2023-03-05T14:31:53.320Z,5.60
2023-03-05T14:34:31.250Z,5.60
2023-03-05T14:37:04.805Z,5.70
2023-03-05T14:39:46.979Z,5.70
2023-03-05T14:42:33.441Z,5.80
2023-03-05T14:45:11.832Z,5.80
2023-03-05T14:47:40.152Z,5.80
2023-03-05T14:50:09.903Z,5.90
2023-03-05T14:52:38.331Z,5.90
2023-03-05T14:55:08.206Z,5.90
2023-03-05T14:57:37.374Z,5.90
2023-03-05T15:00:17.359Z,5.90
2023-03-05T15:02:46.060Z,5.90
2023-03-05T15:05:14.971Z,5.90
2023-03-05T15:07:44.221Z,5.90
2023-03-05T15:10:16.576Z,5.90
2023-03-05T15:12:45.624Z,5.90
2023-03-05T15:15:18.175Z,5.90
2023-03-05T15:17:49.208Z,5.90
2023-03-05T15:20:22.370Z,5.80
2023-03-05T15:22:50.719Z,5.80
2023-03-05T15:25:20.934Z,5.80
2023-03-05T15:27:49.196Z,5.70
2023-03-05T15:30:25.837Z,5.70
2023-03-05T15:32:56.389Z,5.70
2023-03-05T15:35:27.035Z,5.70
2023-03-05T15:37:56.663Z,5.60
2023-03-05T15:40:27.667Z,5.70
2023-03-05T15:42:56.352Z,5.50
2023-03-05T15:45:26.491Z,5.60
2023-03-05T15:47:55.849Z,5.50
2023-03-05T15:50:24.086Z,5.40
2023-03-05T15:52:53.829Z,5.40
2023-03-05T15:55:22.502Z,5.40
2023-03-05T15:57:55.381Z,5.40
2023-03-05T16:00:30.743Z,5.40
2023-03-05T16:02:59.715Z,5.40
2023-03-05T16:05:28.085Z,5.40
2023-03-05T16:10:48.281Z,5.40
2023-03-05T16:13:21.295Z,5.40
2023-03-05T16:15:53.330Z,5.40
2023-03-05T16:18:23.304Z,5.40
2023-03-05T16:20:52.490Z,5.40
2023-03-05T16:23:23.087Z,5.40
2023-03-05T16:25:51.340Z,5.40
2023-03-05T16:28:19.808Z,5.30
2023-03-05T16:30:54.889Z,5.30
2023-03-05T16:33:24.969Z,5.30
2023-03-05T16:36:23.117Z,5.20
2023-03-05T16:38:55.364Z,5.20
2023-03-05T16:41:24.798Z,5.20
2023-03-05T16:43:56.900Z,5.20
2023-03-05T16:46:28.520Z,5.20
2023-03-05T16:48:57.811Z,5.20
2023-03-05T16:51:27.476Z,5.20
2023-03-05T16:53:56.076Z,5.10
2023-03-05T16:56:25.277Z,5.10
2023-03-05T16:58:57.900Z,5.10
2023-03-05T17:01:30.726Z,5.10
2023-03-05T17:04:00.728Z,5.00
2023-03-05T17:06:33.632Z,5.00
2023-03-05T17:09:02.810Z,5.10
2023-03-05T17:11:31.567Z,5.10
2023-03-05T17:14:00.398Z,5.10
2023-03-05T17:16:31.166Z,5.10
2023-03-05T17:18:59.735Z,5.10
2023-03-05T17:21:28.209Z,5.10
2023-03-05T17:23:56.761Z,5.20
2023-03-05T17:26:25.299Z,5.00
2023-03-05T17:28:54.492Z,5.00
2023-03-05T17:31:22.814Z,4.90
2023-03-05T17:33:55.123Z,4.90
2023-03-05T17:36:24.548Z,5.20
2023-03-05T17:38:54.746Z,5.20
2023-03-05T17:41:25.698Z,4.90
2023-03-05T17:43:53.985Z,4.90
2023-03-05T17:46:23.983Z,4.90
2023-03-05T17:48:53.578Z,4.80
2023-03-05T17:51:21.806Z,4.80
2023-03-05T17:53:50.472Z,4.80
2023-03-05T17:56:20.485Z,4.80
2023-03-05T17:58:51.518Z,4.80
2023-03-05T18:01:28.749Z,4.80
2023-03-05T18:03:59.747Z,4.80
2023-03-05T18:06:29.395Z,4.80
2023-03-05T18:08:57.695Z,4.70
2023-03-05T18:11:26.196Z,4.80
2023-03-05T18:13:54.545Z,4.80
2023-03-05T18:16:25.322Z,4.80
2023-03-05T18:18:54.231Z,4.80
2023-03-05T18:21:28.124Z,4.80
2023-03-05T18:23:56.749Z,4.80
2023-03-05T18:26:25.182Z,4.80
2023-03-05T18:28:54.199Z,4.90
2023-03-05T18:31:22.492Z,4.90
2023-03-05T18:33:51.332Z,5.10
2023-03-05T18:36:20.112Z,4.90
2023-03-05T18:38:49.906Z,4.90
2023-03-05T18:41:23.759Z,4.80
2023-03-05T18:43:54.712Z,4.90
2023-03-05T18:46:23.194Z,4.90
2023-03-05T18:48:51.792Z,4.90
2023-03-05T18:51:22.578Z,5.10
2023-03-05T18:53:54.933Z,4.80
2023-03-05T18:56:24.209Z,4.90
2023-03-05T18:58:53.729Z,4.90
2023-03-05T19:01:22.904Z,4.90
2023-03-05T19:03:51.340Z,4.90
2023-03-05T19:06:20.309Z,4.90
2023-03-05T19:08:56.573Z,4.80
2023-03-05T19:11:27.270Z,4.80
2023-03-05T19:13:56.971Z,5.00
2023-03-05T19:16:30.428Z,4.80
2023-03-05T19:19:05.166Z,4.80
2023-03-05T19:21:34.527Z,4.80
2023-03-05T19:24:03.254Z,5.20
2023-03-05T19:26:34.163Z,4.80
2023-03-05T19:29:03.753Z,4.70
2023-03-05T19:31:32.591Z,4.80
2023-03-05T19:34:02.129Z,4.70
2023-03-05T19:36:31.095Z,4.70
2023-03-05T19:39:00.629Z,4.70
2023-03-05T19:41:29.474Z,4.60
2023-03-05T19:43:59.200Z,4.60
2023-03-05T19:46:27.460Z,4.70
2023-03-05T19:48:56.182Z,4.70
2023-03-05T19:51:26.982Z,4.70
2023-03-05T19:53:55.373Z,4.70
2023-03-05T19:56:23.704Z,4.70
2023-03-05T19:58:53.735Z,4.60
2023-03-05T20:01:26.873Z,4.60
2023-03-05T20:03:58.208Z,4.60
2023-03-05T20:06:28.676Z,4.60
2023-03-05T20:08:59.305Z,4.60
2023-03-05T20:11:29.317Z,4.50
2023-03-05T20:13:58.871Z,4.50
2023-03-05T20:16:31.350Z,4.60
2023-03-05T20:19:01.117Z,4.60
2023-03-05T20:21:34.142Z,4.60
2023-03-05T20:24:09.250Z,4.70
2023-03-05T20:26:42.493Z,4.70
2023-03-05T20:29:14.876Z,4.70
2023-03-05T20:31:47.337Z,4.70
2023-03-05T20:34:18.821Z,4.70
2023-03-05T20:36:47.880Z,4.60
2023-03-05T20:39:17.108Z,4.60
2023-03-05T20:41:45.769Z,4.60
2023-03-05T20:44:14.702Z,4.50
2023-03-05T20:46:52.026Z,4.50
2023-03-05T20:49:21.639Z,4.40
2023-03-05T20:51:51.737Z,4.40
2023-03-05T20:54:20.826Z,4.40
2023-03-05T20:56:49.260Z,4.50
2023-03-05T20:59:17.760Z,4.50
2023-03-05T21:01:46.260Z,4.60
2023-03-05T21:04:15.094Z,4.50
2023-03-05T21:06:44.691Z,4.50
2023-03-05T21:09:13.437Z,4.40
2023-03-05T21:11:41.700Z,4.40
2023-03-05T21:14:09.865Z,4.40
2023-03-05T21:16:38.620Z,4.40
2023-03-05T21:19:06.765Z,4.40
2023-03-05T21:21:35.861Z,4.40
2023-03-05T21:24:06.370Z,4.40
2023-03-05T21:26:34.789Z,4.30
2023-03-05T21:29:04.343Z,4.30
2023-03-05T21:31:32.606Z,4.30
2023-03-05T21:34:01.897Z,4.30
2023-03-05T21:36:30.510Z,4.30
2023-03-05T21:39:00.464Z,4.30
2023-03-05T21:41:31.053Z,4.30
2023-03-05T21:44:04.305Z,4.20
2023-03-05T21:46:32.723Z,4.30
2023-03-05T21:49:00.978Z,4.20
2023-03-05T21:51:38.629Z,4.30
2023-03-05T21:54:08.954Z,4.30
2023-03-05T21:56:38.720Z,4.30
2023-03-05T21:59:06.952Z,4.20
2023-03-05T22:01:35.472Z,4.20
2023-03-05T22:04:03.744Z,4.20
2023-03-05T22:06:31.944Z,4.20
2023-03-05T22:09:00.218Z,4.20
2023-03-05T22:11:28.820Z,4.20
2023-03-05T22:13:58.383Z,4.10
2023-03-05T22:16:29.222Z,4.10
2023-03-05T22:18:57.442Z,4.10
2023-03-05T22:21:28.155Z,4.10
2023-03-05T22:23:57.964Z,4.10
2023-03-05T22:26:34.508Z,4.10
2023-03-05T22:29:05.539Z,4.10
2023-03-05T22:31:33.930Z,4.10
2023-03-05T22:34:02.343Z,4.10
2023-03-05T22:36:31.173Z,4.20
2023-03-05T22:38:59.938Z,4.00
2023-03-05T22:41:28.576Z,3.90
2023-03-05T22:43:56.862Z,3.90
2023-03-05T22:46:28.206Z,3.90
2023-03-05T22:48:57.022Z,3.90
2023-03-05T22:51:25.495Z,3.90
2023-03-05T22:53:53.899Z,3.90
2023-03-05T22:56:22.741Z,3.90
2023-03-05T22:58:53.198Z,3.80
2023-03-05T23:01:24.918Z,3.80
2023-03-05T23:03:58.960Z,3.80
2023-03-05T23:06:27.589Z,3.80
2023-03-05T23:08:56.450Z,3.80
2023-03-05T23:11:24.775Z,3.80
2023-03-05T23:13:53.045Z,3.70
2023-03-05T23:16:21.248Z,3.70
2023-03-05T23:18:49.558Z,3.60
2023-03-05T23:21:20.037Z,3.60
2023-03-05T23:23:49.431Z,3.50
2023-03-05T23:26:17.932Z,3.60
2023-03-05T23:28:46.147Z,3.50
2023-03-05T23:31:14.691Z,3.50
2023-03-05T23:33:43.010Z,3.50
2023-03-05T23:36:11.744Z,3.40
2023-03-05T23:38:41.356Z,3.30
2023-03-05T23:41:10.675Z,3.30
2023-03-05T23:43:39.093Z,3.30
2023-03-05T23:46:12.294Z,3.20
2023-03-05T23:48:41.777Z,3.20
2023-03-05T23:51:11.454Z,3.20
2023-03-05T23:53:41.041Z,3.20
2023-03-05T23:56:13.551Z,3.20
2023-03-05T23:58:42.732Z,3.10
